Time;durP1;ratioP1;P1;durP2;ratioP2;P2;SDS_P1;SDS_P2;PMS_P1;PMS_P2;Temp;Humidity;BMP_temperature;BMP_pressure;BME280_temperature;BME280_humidity;BME280_pressure;Samples;Min_cycle;Max_cycle;Signal;HPM_P1;HPM_P2
2022/09/26 00:00:53;;;;;;;12.93;3.92;;;;;;;23.14;53.66;101453.82;1646403;87;21562;-53
2022/09/26 00:03:20;;;;;;;8.28;3.52;;;;;;;23.14;53.69;101456.97;1646472;85;21050;-53
2022/09/26 00:05:47;;;;;;;11.22;4.58;;;;;;;23.14;53.71;101455.65;1646154;87;21090;-53
2022/09/26 00:08:14;;;;;;;14.53;4.10;;;;;;;23.14;53.77;101446.36;1633087;86;21116;-53
2022/09/26 00:10:42;;;;;;;12.80;4.62;;;;;;;23.14;53.81;101454.32;1631889;86;21045;-53
2022/09/26 00:13:08;;;;;;;10.48;4.47;;;;;;;23.14;53.77;101446.36;1633597;86;21620;-53
2022/09/26 00:15:36;;;;;;;11.78;3.50;;;;;;;23.15;53.72;101446.72;1645212;87;21519;-53
2022/09/26 00:18:05;;;;;;;11.00;4.00;;;;;;;23.15;53.79;101448.05;1646380;87;21026;-52
2022/09/26 00:20:31;;;;;;;9.63;3.50;;;;;;;23.15;53.87;101445.39;1633820;86;21548;-60
2022/09/26 00:22:58;;;;;;;12.40;3.90;;;;;;;23.15;53.80;101444.06;1633563;86;21057;-53
2022/09/26 00:25:25;;;;;;;16.65;3.62;;;;;;;23.17;53.68;101446.14;1633212;86;21045;-53
2022/09/26 00:27:52;;;;;;;10.93;3.58;;;;;;;23.17;53.50;101442.16;1633147;86;21576;-53
2022/09/26 00:30:18;;;;;;;8.20;3.30;;;;;;;23.16;53.21;101443.13;1632522;86;21062;-54
2022/09/26 00:32:45;;;;;;;10.72;3.58;;;;;;;23.16;53.07;101439.14;1632986;88;21590;-57
2022/09/26 00:35:12;;;;;;;10.48;4.15;;;;;;;23.15;53.09;101437.42;1642737;86;21089;-53
2022/09/26 00:37:39;;;;;;;10.60;4.33;;;;;;;23.16;53.15;101435.16;1655536;86;21530;-53
2022/09/26 00:40:07;;;;;;;10.60;3.67;;;;;;;23.16;53.34;101439.14;1655806;86;21034;-53
2022/09/26 00:42:34;;;;;;;12.28;4.33;;;;;;;23.16;53.50;101443.95;1642371;87;21066;-53
2022/09/26 00:45:01;;;;;;;9.95;3.60;;;;;;;23.16;53.74;101439.97;1655487;86;21054;-54
2022/09/26 00:47:48;;;;;;;11.80;4.15;;;;;;;23.17;54.04;101438.18;1690361;84;21040;-53
2022/09/26 00:50:23;;;;;;;8.63;3.30;;;;;;;23.17;54.26;101433.73;1709463;84;21038;-53
2022/09/26 00:52:55;;;;;;;11.75;3.95;;;;;;;23.17;54.52;101430.22;1666802;86;21105;-54
2022/09/26 00:55:24;;;;;;;8.85;3.05;;;;;;;23.18;54.67;101430.61;1693655;85;21048;-54
2022/09/26 00:57:56;;;;;;;10.78;3.85;;;;;;;23.17;54.46;101430.22;1694286;85;21026;-53
2022/09/26 01:00:22;;;;;;;9.50;2.98;;;;;;;23.17;54.32;101422.25;1692202;85;21023;-53
2022/09/26 01:02:49;;;;;;;11.30;3.60;;;;;;;23.17;54.35;101419.59;1694405;85;21055;-54
2022/09/26 01:05:18;;;;;;;14.87;3.92;;;;;;;23.18;54.29;101418.66;1671477;84;21581;-54
2022/09/26 01:07:45;;;;;;;11.18;3.47;;;;;;;23.17;54.26;101416.94;1694305;85;20983;-53
2022/09/26 01:10:12;;;;;;;11.90;3.25;;;;;;;23.17;53.99;101414.28;1694243;85;21054;-53
2022/09/26 01:12:39;;;;;;;7.40;3.35;;;;;;;23.16;53.76;101403.30;1693713;85;21051;-53
2022/09/26 01:15:07;;;;;;;13.75;3.58;;;;;;;23.16;53.78;101411.27;1694680;85;21046;-59
2022/09/26 01:17:37;;;;;;;9.45;3.30;;;;;;;23.16;53.86;101405.96;1694215;85;21099;-53
2022/09/26 01:20:30;;;;;;;7.03;2.85;;;;;;;23.15;53.72;101402.91;1694170;85;21582;-54
2022/09/26 01:23:15;;;;;;;7.75;2.98;;;;;;;23.16;53.49;101403.30;1694191;85;21120;-53
2022/09/26 01:26:02;;;;;;;8.50;2.90;;;;;;;23.16;53.39;101403.30;1638529;87;21083;-55
2022/09/26 01:29:01;;;;;;;10.43;3.30;;;;;;;23.16;53.28;101400.15;1638093;87;21061;-54
2022/09/26 01:35:17;;;;;;;8.55;3.60;;;;;;;23.15;53.44;101393.62;1638543;87;21053;-54
2022/09/26 01:38:04;;;;;;;8.93;3.37;;;;;;;23.16;53.32;101383.39;1638067;87;21073;-54
2022/09/26 01:41:11;;;;;;;7.83;2.98;;;;;;;23.14;53.32;101383.47;1635810;87;21049;-53
2022/09/26 01:43:55;;;;;;;6.67;3.08;;;;;;;23.14;53.48;101385.30;1637887;87;21045;-54
2022/09/26 01:46:47;;;;;;;8.80;3.08;;;;;;;23.13;53.47;101387.09;1627106;87;21093;-54
2022/09/26 01:49:28;;;;;;;12.75;3.50;;;;;;;23.13;53.31;101380.92;1645930;84;21097;-55
2022/09/26 01:52:25;;;;;;;8.63;3.33;;;;;;;23.12;53.41;101379.23;1666867;85;21064;-54
2022/09/26 01:55:07;;;;;;;5.58;2.80;;;;;;;23.12;53.37;101379.23;1641205;86;21030;-54
2022/09/26 01:57:42;;;;;;;10.93;3.12;;;;;;;23.12;53.11;101375.25;1612654;87;21917;-55
2022/09/26 02:00:13;;;;;;;9.90;3.25;;;;;;;23.11;52.89;101377.51;1563624;90;21200;-58
2022/09/26 02:02:47;;;;;;;10.65;3.27;;;;;;;23.12;52.99;101369.94;1561676;92;21079;-55
2022/09/26 02:05:24;;;;;;;9.98;3.25;;;;;;;23.12;53.11;101365.95;1568317;91;21071;-54
2022/09/26 02:07:56;;;;;;;6.37;2.95;;;;;;;23.13;53.08;101367.64;1562270;91;21609;-59
2022/09/26 02:10:28;;;;;;;8.58;3.50;;;;;;;23.14;53.09;101370.69;1604224;88;21727;-55
2022/09/26 02:13:00;;;;;;;7.92;3.58;;;;;;;23.14;53.29;101372.84;1562894;91;21072;-54
2022/09/26 02:15:27;;;;;;;10.10;3.77;;;;;;;23.15;53.30;101365.74;1537887;93;21163;-54
2022/09/26 02:18:08;;;;;;;7.45;2.98;;;;;;;23.14;53.36;101362.23;1499653;94;21605;-62
2022/09/26 02:20:36;;;;;;;9.68;3.83;;;;;;;23.14;53.30;101360.08;1518264;93;21081;-54
2022/09/26 02:23:03;;;;;;;7.28;2.47;;;;;;;23.15;53.42;101360.43;1518488;93;21544;-54
2022/09/26 02:25:30;;;;;;;7.55;3.40;;;;;;;23.16;53.35;101355.52;1518284;92;21153;-55
2022/09/26 02:27:57;;;;;;;11.08;3.58;;;;;;;23.17;53.25;101355.87;1518307;92;21132;-57
2022/09/26 02:30:25;;;;;;;10.48;3.20;;;;;;;23.16;53.20;101351.53;1498630;94;21164;-55
2022/09/26 02:32:52;;;;;;;9.73;3.10;;;;;;;23.16;53.20;101349.70;1518759;94;21161;-55
2022/09/26 02:38:06;;;;;;;10.43;3.20;;;;;;;23.18;52.97;101350.95;1518257;94;21109;-54
2022/09/26 02:41:12;;;;;;;11.68;3.33;;;;;;;23.17;53.08;101347.91;1518386;94;21253;-55
2022/09/26 02:44:01;;;;;;;7.92;2.92;;;;;;;23.17;53.36;101348.77;1450644;97;21109;-56
2022/09/26 02:46:50;;;;;;;12.85;4.00;;;;;;;23.18;53.41;101344.32;1451169;97;21135;-55
2022/09/26 02:49:32;;;;;;;12.20;4.17;;;;;;;23.18;53.08;101349.16;1450747;97;21612;-55
2022/09/26 02:52:36;;;;;;;10.72;3.80;;;;;;;23.10;53.27;101342.14;1449352;97;21103;-55
2022/09/26 02:55:24;;;;;;;8.13;3.50;;;;;;;23.16;53.50;101339.59;1414048;100;21637;-59
2022/09/26 02:58:20;;;;;;;11.10;3.62;;;;;;;23.18;53.55;101343.86;1439949;99;21116;-55
2022/09/26 03:01:09;;;;;;;7.58;3.47;;;;;;;23.18;53.55;101341.66;1442084;99;21175;-56
2022/09/26 03:03:49;;;;;;;13.43;3.08;;;;;;;23.18;53.66;101340.34;1439261;99;21612;-56
2022/09/26 03:06:17;;;;;;;13.98;3.58;;;;;;;23.18;53.47;101336.36;1441873;97;21122;-56
2022/09/26 03:08:47;;;;;;;12.80;3.90;;;;;;;23.17;53.40;101339.48;1468157;95;21624;-55
2022/09/26 03:11:20;;;;;;;10.80;3.27;;;;;;;23.17;53.50;101335.50;1514068;94;21075;-54
2022/09/26 03:13:47;;;;;;;8.30;3.70;;;;;;;23.17;53.74;101327.53;1515851;94;21085;-55
2022/09/26 03:16:15;;;;;;;12.15;4.25;;;;;;;23.18;53.83;101320.42;1503865;94;21561;-54
2022/09/26 03:18:51;;;;;;;11.60;3.55;;;;;;;23.17;53.91;101314.72;1542226;91;21076;-54
2022/09/26 03:21:17;;;;;;;12.13;3.37;;;;;;;23.17;54.01;101310.74;1609461;88;21118;-54
2022/09/26 03:23:44;;;;;;;7.72;3.30;;;;;;;23.17;54.13;101316.91;1633811;88;21531;-54
2022/09/26 03:26:15;;;;;;;7.50;3.20;;;;;;;23.17;54.13;101310.27;1633001;88;21112;-61
2022/09/26 03:28:44;;;;;;;10.72;4.37;;;;;;;23.18;54.05;101311.13;1555732;92;21143;-55
2022/09/26 03:31:10;;;;;;;11.83;3.58;;;;;;;23.17;53.99;101309.41;1558773;89;21104;-54
2022/09/26 03:33:39;;;;;;;12.43;4.08;;;;;;;23.17;54.12;101308.09;1552538;92;21662;-55
2022/09/26 03:36:08;;;;;;;10.70;3.83;;;;;;;23.18;54.17;101308.48;1554458;91;21098;-55
2022/09/26 03:38:36;;;;;;;14.03;3.10;;;;;;;23.18;54.12;101309.80;1554712;92;21118;-54
2022/09/26 03:41:06;;;;;;;9.00;3.12;;;;;;;23.19;54.03;101311.49;1501956;95;21574;-54
2022/09/26 03:43:49;;;;;;;10.18;2.90;;;;;;;23.18;54.04;101304.49;1487575;96;21129;-54
2022/09/26 03:46:17;;;;;;;10.15;3.35;;;;;;;23.18;54.25;101309.80;1478045;96;21121;-57
2022/09/26 03:48:43;;;;;;;9.63;3.62;;;;;;;23.18;54.16;101304.49;1482841;96;21679;-55
2022/09/26 03:51:12;;;;;;;18.02;4.20;;;;;;;23.18;54.01;101304.49;1484523;96;21331;-54
2022/09/26 03:53:41;;;;;;;9.15;3.40;;;;;;;23.19;54.05;101300.88;1485177;96;21082;-62
2022/09/26 03:56:11;;;;;;;;;;;;;;;23.19;53.99;101300.88;1487599;96;21121;-55
2022/09/26 03:58:38;;;;;;;8.10;3.05;;;;;;;23.20;53.97;101297.28;1483290;96;20248;-54
2022/09/26 04:01:07;;;;;;;8.33;3.05;;;;;;;23.19;54.06;101306.19;1484061;96;21575;-54
2022/09/26 04:03:36;;;;;;;11.55;3.12;;;;;;;23.19;54.02;101300.88;1484500;96;21583;-55
2022/09/26 04:06:04;;;;;;;7.72;3.35;;;;;;;23.20;54.02;101299.94;1485165;96;21577;-54
2022/09/26 04:08:31;;;;;;;10.93;3.45;;;;;;;23.20;53.92;101301.27;1484207;96;21131;-55
2022/09/26 04:11:07;;;;;;;7.65;3.25;;;;;;;23.20;53.95;101298.14;1491221;95;21105;-55
2022/09/26 04:13:34;;;;;;;14.55;3.58;;;;;;;23.19;54.10;101285.80;1473620;96;21099;-55
2022/09/26 04:16:02;;;;;;;15.50;3.27;;;;;;;23.20;54.24;101286.66;1532394;93;21699;-54
2022/09/26 04:18:29;;;;;;;7.92;3.05;;;;;;;23.21;54.30;101283.04;1565952;89;21137;-54
2022/09/26 04:21:01;;;;;;;8.50;2.50;;;;;;;23.21;54.23;101280.38;1552252;91;21075;-54
2022/09/26 04:23:32;;;;;;;10.98;2.92;;;;;;;23.20;54.24;101276.91;1567535;90;21140;-54
2022/09/26 04:26:13;;;;;;;8.73;3.27;;;;;;;23.20;54.20;101275.57;1581585;87;21121;-54
2022/09/26 04:28:40;;;;;;;12.40;3.75;;;;;;;23.21;54.17;101280.38;1605238;89;21075;-55
2022/09/26 04:31:09;;;;;;;8.50;3.10;;;;;;;23.20;54.08;101276.04;1600912;87;21066;-59
2022/09/26 04:33:39;;;;;;;9.45;3.33;;;;;;;23.20;54.21;101276.04;1543166;92;21092;-55
2022/09/26 04:36:11;;;;;;;10.35;3.25;;;;;;;23.21;54.34;101283.04;1601673;89;21056;-61
2022/09/26 04:38:39;;;;;;;14.93;3.72;;;;;;;23.22;54.24;101287.41;1601484;88;21042;-54
2022/09/26 04:41:17;;;;;;;10.53;3.67;;;;;;;23.23;54.40;101287.77;1579541;90;21094;-55
2022/09/26 04:43:46;;;;;;;12.10;3.30;;;;;;;23.24;54.58;101286.36;1541809;91;21657;-55
2022/09/26 04:46:16;;;;;;;8.78;3.55;;;;;;;23.25;54.54;101281.88;1583959;89;21084;-55
2022/09/26 04:48:43;;;;;;;11.48;3.00;;;;;;;23.26;54.46;101280.95;1583735;89;21037;-55
2022/09/26 04:51:14;;;;;;;15.05;3.10;;;;;;;23.27;54.42;101284.82;1587711;89;21080;-58
2022/09/26 04:53:41;;;;;;;12.43;3.80;;;;;;;23.27;54.33;101283.48;1583617;89;21070;-54
2022/09/26 04:56:11;;;;;;;13.88;3.77;;;;;;;23.28;54.31;101283.02;1510550;95;21096;-55
2022/09/26 04:58:40;;;;;;;12.35;3.95;;;;;;;23.28;54.54;101287.00;1507189;95;21184;-54
2022/09/26 05:01:10;;;;;;;15.98;4.10;;;;;;;23.30;54.72;101285.09;1510350;95;21597;-55
2022/09/26 05:03:45;;;;;;;10.40;3.30;;;;;;;23.30;54.76;101283.77;1458085;98;21141;-55
2022/09/26 05:06:13;;;;;;;12.43;3.08;;;;;;;23.31;54.69;101282.33;1483399;95;21130;-55
2022/09/26 05:08:45;;;;;;;10.78;3.02;;;;;;;23.32;54.69;101291.20;1491652;96;21687;-55
2022/09/26 05:11:10;;;;;;;12.07;3.55;;;;;;;23.32;54.79;101298.69;1491389;95;21106;-55
2022/09/26 05:13:38;;;;;;;11.28;3.60;;;;;;;23.34;54.82;101298.58;1481435;96;21151;-54
2022/09/26 05:16:07;;;;;;;12.23;3.52;;;;;;;23.35;54.90;101292.30;1490544;95;21322;-54
2022/09/26 05:18:37;;;;;;;11.73;3.42;;;;;;;23.37;54.98;101293.05;1484036;95;21133;-55
2022/09/26 05:21:06;;;;;;;8.40;3.47;;;;;;;23.37;55.06;101289.06;1480693;97;21630;-54
2022/09/26 05:26:27;;;;;;;12.50;3.70;;;;;;;23.39;55.14;101287.16;1479167;96;21195;-58
2022/09/26 05:29:00;;;;;;;10.85;3.45;;;;;;;23.39;55.21;101289.81;1479748;97;21138;-54
2022/09/26 05:31:30;;;;;;;11.88;3.60;;;;;;;23.41;55.27;101290.59;1435987;98;21139;-55
2022/09/26 05:33:57;;;;;;;17.25;4.00;;;;;;;23.41;55.39;101287.44;1438651;100;21638;-54
2022/09/26 05:36:27;;;;;;;8.15;3.65;;;;;;;23.43;55.36;101286.03;1435490;100;21127;-54
2022/09/26 05:38:54;;;;;;;6.25;3.02;;;;;;;23.45;55.43;101285.45;1436359;100;21087;-53
2022/09/26 05:41:21;;;;;;;15.05;3.67;;;;;;;23.49;55.41;101282.97;1498916;94;21580;-55
2022/09/26 05:43:48;;;;;;;13.10;4.10;;;;;;;23.51;55.41;101277.08;1517998;94;21117;-54
2022/09/26 05:46:15;;;;;;;12.03;3.47;;;;;;;23.55;55.44;101283.02;1518490;94;21120;-54
2022/09/26 05:48:43;;;;;;;10.23;3.60;;;;;;;23.58;55.48;101277.02;1515238;94;21115;-59
2022/09/26 05:51:14;;;;;;;10.48;3.15;;;;;;;23.62;55.43;101279.84;1515014;94;21139;-54
2022/09/26 05:53:44;;;;;;;16.10;3.67;;;;;;;23.65;55.34;101278.79;1537234;93;21089;-55
2022/09/26 05:56:13;;;;;;;8.53;3.33;;;;;;;23.68;55.36;101280.75;1517878;94;21531;-55
2022/09/26 05:58:51;;;;;;;10.88;3.98;;;;;;;23.74;55.31;101279.00;1472665;96;21625;-55
2022/09/26 06:01:18;;;;;;;11.40;3.65;;;;;;;23.79;55.19;101274.24;1490096;96;21156;-55
2022/09/26 06:03:46;;;;;;;11.65;3.17;;;;;;;23.80;55.33;101281.24;1471905;97;21101;-54
2022/09/26 06:06:16;;;;;;;12.88;4.20;;;;;;;23.83;55.41;101278.86;1516083;94;21093;-55
2022/09/26 06:08:45;;;;;;;8.85;3.47;;;;;;;23.88;55.38;101276.75;1516086;94;21630;-55
2022/09/26 06:11:21;;;;;;;9.70;4.00;;;;;;;23.90;55.34;101275.70;1515492;95;21168;-54
2022/09/26 06:13:48;;;;;;;10.93;3.98;;;;;;;23.95;55.38;101274.89;1496398;96;21094;-57
2022/09/26 06:16:19;;;;;;;10.53;3.65;;;;;;;23.97;55.43;101266.33;1496438;96;21093;-55
2022/09/26 06:18:49;;;;;;;11.28;3.75;;;;;;;24.00;55.51;101266.12;1518802;94;21595;-54
2022/09/26 06:21:17;;;;;;;18.20;3.80;;;;;;;24.04;55.57;101270.31;1500798;96;21109;-56
2022/09/26 06:23:45;;;;;;;11.70;3.75;;;;;;;24.07;55.61;101267.42;1500816;94;21106;-55
2022/09/26 06:26:22;;;;;;;8.65;3.10;;;;;;;24.11;55.61;101266.25;1500617;96;21110;-53
2022/09/26 06:28:58;;;;;;;13.83;3.95;;;;;;;24.16;55.64;101265.46;1515095;94;21627;-55
2022/09/26 06:31:28;;;;;;;10.98;4.30;;;;;;;24.24;55.53;101267.09;1563345;92;21555;-54
2022/09/26 06:34:11;;;;;;;13.75;3.80;;;;;;;24.32;55.30;101265.22;1565298;91;21690;-56
2022/09/26 06:36:44;;;;;;;11.80;3.50;;;;;;;24.38;55.02;101258.64;1561574;92;21111;-55
2022/09/26 06:39:11;;;;;;;6.65;3.35;;;;;;;24.42;54.89;101269.43;1571221;91;21155;-57
2022/09/26 06:41:38;;;;;;;10.28;3.87;;;;;;;24.44;54.71;101268.34;1571170;91;21684;-54
2022/09/26 06:44:06;;;;;;;12.43;3.72;;;;;;;24.48;54.72;101266.33;1569788;91;21270;-55
2022/09/26 06:46:51;;;;;;;13.15;3.83;;;;;;;24.50;54.70;101267.07;1570820;91;21668;-55
2022/09/26 06:49:23;;;;;;;;;;;;;;;24.51;54.58;101271.41;1565570;90;21092;-55
2022/09/26 06:51:57;;;;;;;8.83;3.75;;;;;;;24.50;54.56;101275.05;1561542;92;20152;-60
2022/09/26 06:54:24;;;;;;;16.95;3.98;;;;;;;24.50;54.56;101280.38;1616136;84;21553;-54
2022/09/26 06:56:50;;;;;;;12.78;3.55;;;;;;;24.51;54.41;101284.72;1704051;83;21034;-55
2022/09/26 06:59:17;;;;;;;13.28;4.60;;;;;;;24.51;54.17;101290.03;1704717;83;21034;-55
2022/09/26 07:01:46;;;;;;;9.18;3.67;;;;;;;24.50;53.96;101283.03;1694815;83;21101;-54
2022/09/26 07:04:26;;;;;;;8.25;3.77;;;;;;;24.49;53.77;101282.64;1642656;87;21086;-55
2022/09/26 07:06:54;;;;;;;9.28;3.67;;;;;;;24.49;53.63;101294.62;1641108;87;21105;-55
2022/09/26 07:09:22;;;;;;;7.10;3.40;;;;;;;24.47;53.68;101289.41;1642378;86;21071;-54
2022/09/26 07:11:54;;;;;;;9.30;3.20;;;;;;;24.48;53.77;101286.28;1586811;89;21091;-55
2022/09/26 07:14:21;;;;;;;10.82;4.33;;;;;;;24.48;53.88;101286.28;1586548;90;21552;-55
2022/09/26 07:16:53;;;;;;;14.83;4.53;;;;;;;24.50;54.02;101285.69;1586150;89;21071;-55
2022/09/26 07:19:22;;;;;;;10.53;4.12;;;;;;;24.53;54.17;101280.14;1561848;92;21102;-55
2022/09/26 07:21:57;;;;;;;13.03;4.47;;;;;;;24.57;54.09;101276.30;1564045;90;21091;-54
2022/09/26 07:24:33;;;;;;;12.37;3.47;;;;;;;24.60;54.09;101270.77;1561669;92;21564;-54
2022/09/26 07:27:01;;;;;;;9.88;4.25;;;;;;;24.65;54.28;101276.59;1562213;92;21113;-55
2022/09/26 07:29:28;;;;;;;14.58;4.45;;;;;;;24.69;54.35;101271.45;1592413;89;21104;-53
2022/09/26 07:31:55;;;;;;;13.35;4.05;;;;;;;24.75;54.40;101269.20;1593151;88;21569;-58
2022/09/26 07:34:23;;;;;;;11.70;3.80;;;;;;;24.84;54.30;101275.67;1584073;89;21053;-55
2022/09/26 07:36:51;;;;;;;9.80;3.62;;;;;;;24.89;54.03;101274.37;1549996;91;21561;-54
2022/09/26 07:39:18;;;;;;;9.55;3.22;;;;;;;24.96;53.81;101276.97;1550812;91;21537;-54
2022/09/26 07:41:45;;;;;;;9.23;3.30;;;;;;;25.03;53.71;101272.05;1567852;90;21557;-55
2022/09/26 07:44:13;;;;;;;11.83;3.45;;;;;;;25.11;53.53;101268.33;1581676;90;21122;-54
2022/09/26 07:52:12;;;;;;;6.70;3.85;;;;;;;25.29;52.85;101268.30;1505688;94;21125;-53
2022/09/26 07:54:52;;;;;;;7.60;3.00;;;;;;;25.32;52.77;101256.09;1528234;92;21605;-54
2022/09/26 07:57:24;;;;;;;9.80;3.67;;;;;;;25.34;52.69;101255.49;1540677;91;21586;-56
2022/09/26 08:00:12;;;;;;;8.88;3.50;;;;;;;25.38;52.57;101256.95;1549943;91;21587;-55
2022/09/26 08:02:45;;;;;;;12.68;3.90;;;;;;;25.41;52.48;101255.41;1538636;93;21659;-55
2022/09/26 08:05:18;;;;;;;5.40;2.87;;;;;;;25.46;52.47;101255.06;1542720;91;21042;-54
2022/09/26 08:07:45;;;;;;;12.70;3.87;;;;;;;25.50;52.34;101257.39;1540702;91;21603;-55
2022/09/26 08:10:20;;;;;;;10.00;3.50;;;;;;;25.55;52.13;101259.23;1533112;93;21086;-55
2022/09/26 08:13:05;;;;;;;;;;;;;;;25.60;51.89;101251.73;1474369;95;21112;-54
2022/09/26 08:15:34;;;;;;;5.62;3.12;;;;;;;25.66;51.58;101229.08;1484457;94;20127;-55
2022/09/26 08:18:02;;;;;;;8.98;3.62;;;;;;;25.66;51.58;101229.08;1516820;93;21099;-55
2022/09/26 08:20:30;;;;;;;10.28;3.45;;;;;;;25.70;51.71;101255.38;1521265;94;21162;-55
2022/09/26 08:22:56;;;;;;;10.90;3.42;;;;;;;25.71;51.54;101249.09;1521853;94;21117;-55
2022/09/26 08:25:23;;;;;;;10.45;3.70;;;;;;;25.72;51.42;101250.78;1498786;96;21603;-55
2022/09/26 08:27:58;;;;;;;5.33;3.60;;;;;;;25.74;51.38;101254.17;1482378;95;21151;-55
2022/09/26 08:30:30;;;;;;;8.23;3.45;;;;;;;25.73;51.34;101260.49;1479714;97;21117;-54
2022/09/26 08:33:01;;;;;;;12.20;4.33;;;;;;;25.72;51.33;101260.11;1485388;95;21190;-55
2022/09/26 08:35:23;;;;;;;11.80;4.22;;;;;;;25.71;51.32;101261.57;1479657;95;21148;-54
2022/09/26 08:38:02;;;;;;;10.08;3.60;;;;;;;25.67;51.40;101252.97;1475399;97;21100;-55
2022/09/26 08:40:58;;;;;;;8.08;3.22;;;;;;;25.63;51.44;101255.50;1475400;97;21588;-55
2022/09/26 08:43:52;;;;;;;5.97;3.30;;;;;;;25.58;51.64;101235.00;1475256;97;21143;-55
2022/09/26 08:49:58;;;;;;;10.70;4.00;;;;;;;25.61;51.95;101233.45;1447839;96;21661;-62
2022/09/26 08:52:33;;;;;;;11.00;3.85;;;;;;;25.64;51.96;101226.53;1441426;99;21171;-54
2022/09/26 08:55:05;;;;;;;14.40;4.00;;;;;;;25.68;51.81;101217.33;1455685;98;21120;-55
2022/09/26 08:57:38;;;;;;;;;;;;;;;25.72;51.52;101208.12;1436867;100;21173;-55
2022/09/26 09:00:23;;;;;;;10.08;4.33;;;;;;;25.76;51.32;101208.26;1460777;98;20148;-55
2022/09/26 09:03:25;;;;;;;9.80;3.62;;;;;;;25.79;51.20;101198.70;1456299;97;21108;-54
2022/09/26 09:06:05;;;;;;;11.73;3.52;;;;;;;25.79;51.20;101194.70;1473644;97;21087;-55
2022/09/26 09:08:39;;;;;;;6.67;3.55;;;;;;;25.81;51.26;101199.43;1473815;97;21564;-55
2022/09/26 09:11:46;;;;;;;7.33;3.42;;;;;;;25.86;51.19;101198.22;1454385;98;21173;-55
2022/09/26 09:15:00;;;;;;;7.47;3.50;;;;;;;25.88;51.09;101199.81;1487344;94;21179;-55
2022/09/26 09:18:12;;;;;;;;;;;;;;;25.91;51.02;101197.36;1531738;93;21565;-55
2022/09/26 09:20:57;;;;;;;13.03;4.30;;;;;;;25.97;50.90;101198.20;1526668;92;20125;-54
2022/09/26 09:23:41;;;;;;;10.25;4.08;;;;;;;25.99;50.81;101201.63;1491894;96;21181;-55
2022/09/26 09:26:30;;;;;;;12.20;4.28;;;;;;;26.04;50.68;101207.44;1449600;99;21157;-54
2022/09/26 09:29:28;;;;;;;11.18;3.98;;;;;;;26.07;50.59;101208.06;1454754;97;21200;-55
2022/09/26 09:31:57;;;;;;;13.45;4.42;;;;;;;26.10;50.49;101212.31;1450281;97;21182;-55
2022/09/26 09:34:29;;;;;;;10.00;4.25;;;;;;;26.12;50.44;101213.90;1433206;99;21178;-55
2022/09/26 09:37:02;;;;;;;11.78;4.95;;;;;;;26.15;50.43;101226.16;1439827;99;21141;-55
2022/09/26 09:39:34;;;;;;;8.38;4.15;;;;;;;26.16;50.48;101219.83;1434217;100;21582;-55
2022/09/26 09:42:20;;;;;;;12.03;4.10;;;;;;;26.18;50.46;101221.89;1430944;100;21195;-56
2022/09/26 09:45:19;;;;;;;12.98;3.87;;;;;;;26.18;50.38;101220.56;1406818;102;21122;-56
2022/09/26 09:47:47;;;;;;;15.10;4.40;;;;;;;26.20;50.27;101222.62;1401128;102;21160;-55
2022/09/26 09:50:16;;;;;;;9.63;3.72;;;;;;;26.22;49.95;101215.34;1402906;102;21186;-55
2022/09/26 09:53:05;;;;;;;12.53;3.83;;;;;;;26.24;49.92;101212.06;1401073;102;21105;-55
2022/09/26 09:56:04;;;;;;;8.75;3.77;;;;;;;26.27;49.81;101218.51;1396814;102;21189;-55
2022/09/26 09:59:14;;;;;;;9.68;4.40;;;;;;;26.29;49.75;101208.56;1397102;102;21117;-56
2022/09/26 10:01:46;;;;;;;12.15;3.90;;;;;;;26.32;49.59;101205.63;1355803;105;21138;-54
2022/09/26 10:04:32;;;;;;;10.65;4.65;;;;;;;26.33;49.61;101199.34;1384365;103;21160;-55
2022/09/26 10:07:00;;;;;;;10.48;3.70;;;;;;;26.31;49.53;101202.61;1384450;103;21219;-60
2022/09/26 10:09:38;;;;;;;13.65;4.37;;;;;;;26.31;49.53;101202.61;1385434;102;21101;-55
2022/09/26 10:12:23;;;;;;;10.40;4.33;;;;;;;26.30;49.70;101190.23;1340973;106;21180;-57
2022/09/26 10:15:04;;;;;;;8.70;4.62;;;;;;;26.30;49.70;101190.23;1301533;110;21228;-55
2022/09/26 10:17:35;;;;;;;12.25;4.65;;;;;;;26.31;49.89;101189.27;1310859;108;21172;-60
2022/09/26 10:20:34;;;;;;;13.98;5.50;;;;;;;26.32;49.88;101185.62;1276576;111;21254;-54
2022/09/26 10:23:03;;;;;;;16.27;4.55;;;;;;;26.34;49.83;101185.01;1319994;107;21182;-55
2022/09/26 10:25:30;;;;;;;15.38;4.67;;;;;;;26.37;49.72;101187.44;1339704;107;21152;-55
2022/09/26 10:27:59;;;;;;;11.35;4.80;;;;;;;26.39;49.68;101181.50;1339650;107;21141;-55
2022/09/26 10:30:31;;;;;;;9.68;4.90;;;;;;;26.45;49.75;101166.32;1339767;107;21721;-54
2022/09/26 10:33:05;;;;;;;11.18;4.45;;;;;;;26.45;49.75;101166.32;1341909;106;21145;-59
2022/09/26 10:35:44;;;;;;;12.93;3.95;;;;;;;26.47;49.48;101164.38;1358621;106;21197;-54
2022/09/26 10:38:20;;;;;;;12.18;4.03;;;;;;;26.47;49.38;101152.37;1367264;100;21302;-54
2022/09/26 10:40:53;;;;;;;11.60;4.35;;;;;;;26.45;49.40;101152.98;1420200;101;21690;-54
2022/09/26 10:43:29;;;;;;;9.90;4.10;;;;;;;26.43;49.35;101148.25;1420165;101;21166;-55
2022/09/26 10:46:14;;;;;;;9.05;3.92;;;;;;;26.42;49.27;101142.06;1425300;96;21641;-55
2022/09/26 10:49:00;;;;;;;15.58;4.00;;;;;;;26.39;49.43;101148.14;1486472;94;21086;-55
2022/09/26 10:51:47;;;;;;;11.90;4.17;;;;;;;26.37;49.58;101139.41;1485943;92;21118;-61
2022/09/26 10:54:17;;;;;;;7.65;4.12;;;;;;;26.35;49.54;101128.02;1505262;94;21096;-55
2022/09/26 10:56:48;;;;;;;10.35;4.62;;;;;;;26.34;49.51;101124.98;1484485;95;21101;-61
2022/09/26 10:59:16;;;;;;;11.83;4.97;;;;;;;26.34;49.54;101122.30;1488795;95;21100;-57
2022/09/26 11:01:47;;;;;;;10.08;4.08;;;;;;;26.35;49.65;101121.35;1511238;93;21082;-57
2022/09/26 11:05:55;;;;;;;11.90;3.85;;;;;;;26.36;49.72;101111.02;1508689;95;21113;-54
2022/09/26 11:06:49;;;;;;;11.12;4.78;;;;;;;26.36;49.64;101104.36;1507775;94;21102;-56
2022/09/26 11:09:20;;;;;;;;;;;;;;;26.36;49.65;101109.21;1482991;96;21178;-54
2022/09/26 11:11:58;;;;;;;8.05;4.58;;;;;;;26.38;49.74;101115.75;1439856;98;20135;-55
2022/09/26 11:14:30;;;;;;;9.30;4.22;;;;;;;26.38;49.83;101123.27;1438906;98;21113;-56
2022/09/26 11:17:02;;;;;;;9.23;4.42;;;;;;;26.38;49.77;101120.61;1439727;98;21161;-55
2022/09/26 11:19:57;;;;;;;12.40;4.55;;;;;;;26.39;49.74;101116.13;1412630;99;21700;-61
2022/09/26 11:22:36;;;;;;;11.15;4.50;;;;;;;26.40;49.79;101107.13;1437015;98;21136;-55
2022/09/26 11:25:27;;;;;;;12.03;4.58;;;;;;;26.39;49.75;101110.79;1444372;98;21174;-53
2022/09/26 11:28:07;;;;;;;16.45;5.15;;;;;;;26.39;49.68;101112.13;1447820;98;21088;-53
2022/09/26 11:30:40;;;;;;;9.38;5.15;;;;;;;26.38;49.68;101115.75;1417176;100;21154;-53
2022/09/26 11:33:12;;;;;;;10.38;4.67;;;;;;;26.37;49.75;101111.41;1426076;99;21176;-54
2022/09/26 11:36:24;;;;;;;9.60;4.40;;;;;;;26.35;49.76;101112.02;1459285;97;21136;-56
2022/09/26 11:39:01;;;;;;;13.98;4.60;;;;;;;26.35;49.89;101120.02;1450152;98;21108;-54
2022/09/26 11:41:54;;;;;;;11.70;4.67;;;;;;;26.35;50.02;101118.68;1460208;97;21159;-56
2022/09/26 11:44:46;;;;;;;12.98;4.47;;;;;;;26.35;50.09;101113.34;1430490;100;21133;-56
2022/09/26 11:47:43;;;;;;;13.13;5.62;;;;;;;26.35;50.19;101125.36;1476180;95;21122;-57
2022/09/26 11:50:26;;;;;;;10.85;4.95;;;;;;;26.37;50.25;101130.08;1493339;95;21097;-55
2022/09/26 11:53:23;;;;;;;10.38;4.75;;;;;;;26.39;50.33;101132.13;1499269;94;21080;-56
2022/09/26 11:56:14;;;;;;;11.28;4.70;;;;;;;26.43;50.09;101099.74;1496718;94;21104;-56
2022/09/26 11:58:58;;;;;;;10.38;4.50;;;;;;;26.43;50.09;101099.74;1486969;96;21090;-56
2022/09/26 12:01:48;;;;;;;10.78;4.72;;;;;;;26.44;50.32;101090.75;1503650;95;21133;-54
2022/09/26 12:04:53;;;;;;;10.70;4.65;;;;;;;26.42;50.29;101094.54;1503423;95;21097;-54
2022/09/26 12:07:43;;;;;;;8.73;4.45;;;;;;;26.38;50.41;101087.73;1502910;95;21124;-55
2022/09/26 12:10:48;;;;;;;13.32;4.50;;;;;;;26.32;50.54;101070.89;1497346;95;21072;-55
2022/09/26 12:13:33;;;;;;;8.60;5.17;;;;;;;26.25;50.81;101073.72;1507900;94;21196;-56
2022/09/26 12:16:08;;;;;;;7.72;4.50;;;;;;;26.20;50.95;101072.76;1504272;95;21577;-57